Davisburg, Michigan
Current Conditions -  °F | °C
As of 1:53 AM on Monday 24 Nov 2014 (Local Time) from KPTK Reporting Station
Moderate Rain Moderate Rain  
Wind Chill: 51°   Ceiling: 500
Heat Index: 51°   Visibility: 3mi
Dew Point: 49°   Wind: 17mph
Humidity: 92%   Direction: 150°SSE
Pressure: 29.1"   Gusts: 25mph
Location:  42.75°N, 83.54°W
Report Text: KPTK 240653Z AUTO 15015G22KT 3SM RA BR OVC005 11/09 A2910 RMK AO2 PRESFR SLP854 P0008 T01060094
Loading
Personal Weather Stations






























Interactive Weather Map New forecast layout! Learn more

10-Day Weather Forecast

Advertisements
Track Severe Weather on mobile